sensor_id;sensor_type;location;lat;lon;timestamp;P1;durP1;ratioP1;P2;durP2;ratioP2
5452;SDS011;2749;53.576;9.822;2022-09-09T00:00:11;52.80;;;33.40;;
5452;SDS011;2749;53.576;9.822;2022-09-09T00:02:38;47.60;;;31.00;;
5452;SDS011;2749;53.576;9.822;2022-09-09T00:07:52;44.03;;;32.20;;
5452;SDS011;2749;53.576;9.822;2022-09-09T00:20:52;51.70;;;31.80;;
5452;SDS011;2749;53.576;9.822;2022-09-09T00:23:38;46.27;;;29.17;;
5452;SDS011;2749;53.576;9.822;2022-09-09T00:28:41;48.73;;;30.90;;
5452;SDS011;2749;53.576;9.822;2022-09-09T00:31:14;43.37;;;29.60;;
5452;SDS011;2749;53.576;9.822;2022-09-09T00:33:41;45.37;;;28.93;;
5452;SDS011;2749;53.576;9.822;2022-09-09T00:36:16;53.57;;;30.53;;
5452;SDS011;2749;53.576;9.822;2022-09-09T00:38:47;41.27;;;27.30;;
5452;SDS011;2749;53.576;9.822;2022-09-09T00:41:18;47.60;;;30.50;;
5452;SDS011;2749;53.576;9.822;2022-09-09T00:43:55;38.40;;;26.37;;
5452;SDS011;2749;53.576;9.822;2022-09-09T00:51:37;41.13;;;27.93;;
5452;SDS011;2749;53.576;9.822;2022-09-09T00:54:12;47.13;;;31.97;;
5452;SDS011;2749;53.576;9.822;2022-09-09T00:56:46;44.20;;;30.43;;
5452;SDS011;2749;53.576;9.822;2022-09-09T00:59:20;43.37;;;28.63;;
5452;SDS011;2749;53.576;9.822;2022-09-09T01:01:50;45.80;;;28.27;;
5452;SDS011;2749;53.576;9.822;2022-09-09T01:04:18;41.50;;;26.57;;
5452;SDS011;2749;53.576;9.822;2022-09-09T01:06:50;41.17;;;27.67;;
5452;SDS011;2749;53.576;9.822;2022-09-09T01:09:33;40.67;;;28.20;;
5452;SDS011;2749;53.576;9.822;2022-09-09T01:12:23;43.17;;;28.27;;
5452;SDS011;2749;53.576;9.822;2022-09-09T01:14:51;34.40;;;27.43;;
5452;SDS011;2749;53.576;9.822;2022-09-09T01:17:30;37.87;;;23.83;;
5452;SDS011;2749;53.576;9.822;2022-09-09T01:25:07;42.57;;;26.73;;
5452;SDS011;2749;53.576;9.822;2022-09-09T01:27:38;36.73;;;25.37;;
5452;SDS011;2749;53.576;9.822;2022-09-09T01:30:10;37.97;;;27.33;;
5452;SDS011;2749;53.576;9.822;2022-09-09T01:32:38;36.90;;;25.83;;
5452;SDS011;2749;53.576;9.822;2022-09-09T01:35:05;38.23;;;26.60;;
5452;SDS011;2749;53.576;9.822;2022-09-09T01:37:33;40.93;;;28.57;;
5452;SDS011;2749;53.576;9.822;2022-09-09T01:39:59;36.10;;;27.70;;
5452;SDS011;2749;53.576;9.822;2022-09-09T01:42:25;38.43;;;27.03;;
5452;SDS011;2749;53.576;9.822;2022-09-09T01:44:51;34.40;;;25.80;;
5452;SDS011;2749;53.576;9.822;2022-09-09T01:47:17;32.77;;;25.27;;
5452;SDS011;2749;53.576;9.822;2022-09-09T01:49:43;37.53;;;25.20;;
5452;SDS011;2749;53.576;9.822;2022-09-09T01:52:09;38.43;;;26.10;;
5452;SDS011;2749;53.576;9.822;2022-09-09T01:54:35;37.27;;;23.10;;
5452;SDS011;2749;53.576;9.822;2022-09-09T01:57:23;31.90;;;24.20;;
5452;SDS011;2749;53.576;9.822;2022-09-09T01:59:53;35.70;;;23.67;;
5452;SDS011;2749;53.576;9.822;2022-09-09T02:02:25;29.33;;;21.80;;
5452;SDS011;2749;53.576;9.822;2022-09-09T02:04:52;30.83;;;22.60;;
5452;SDS011;2749;53.576;9.822;2022-09-09T02:09:56;32.60;;;22.63;;
5452;SDS011;2749;53.576;9.822;2022-09-09T02:12:22;29.30;;;21.23;;
5452;SDS011;2749;53.576;9.822;2022-09-09T02:14:51;36.27;;;24.33;;
5452;SDS011;2749;53.576;9.822;2022-09-09T02:17:23;28.67;;;21.23;;
5452;SDS011;2749;53.576;9.822;2022-09-09T02:19:52;29.97;;;21.70;;
5452;SDS011;2749;53.576;9.822;2022-09-09T02:22:20;30.23;;;21.73;;
5452;SDS011;2749;53.576;9.822;2022-09-09T02:24:47;31.43;;;22.53;;
5452;SDS011;2749;53.576;9.822;2022-09-09T02:27:15;28.30;;;23.33;;
5452;SDS011;2749;53.576;9.822;2022-09-09T02:29:42;26.07;;;21.20;;
5452;SDS011;2749;53.576;9.822;2022-09-09T02:32:11;31.20;;;23.87;;
5452;SDS011;2749;53.576;9.822;2022-09-09T02:34:47;33.10;;;21.70;;
5452;SDS011;2749;53.576;9.822;2022-09-09T02:37:13;30.77;;;21.30;;
5452;SDS011;2749;53.576;9.822;2022-09-09T02:39:40;27.20;;;21.10;;
5452;SDS011;2749;53.576;9.822;2022-09-09T02:42:06;30.37;;;22.47;;
5452;SDS011;2749;53.576;9.822;2022-09-09T02:44:33;25.70;;;20.00;;
5452;SDS011;2749;53.576;9.822;2022-09-09T02:52:07;26.60;;;21.80;;
5452;SDS011;2749;53.576;9.822;2022-09-09T02:54:35;28.53;;;20.20;;
5452;SDS011;2749;53.576;9.822;2022-09-09T02:57:08;29.27;;;22.77;;
5452;SDS011;2749;53.576;9.822;2022-09-09T02:59:36;25.57;;;20.67;;
5452;SDS011;2749;53.576;9.822;2022-09-09T03:02:02;28.80;;;22.00;;
5452;SDS011;2749;53.576;9.822;2022-09-09T03:04:28;34.60;;;22.90;;
5452;SDS011;2749;53.576;9.822;2022-09-09T03:06:56;27.43;;;21.57;;
5452;SDS011;2749;53.576;9.822;2022-09-09T03:09:21;27.93;;;21.17;;
5452;SDS011;2749;53.576;9.822;2022-09-09T03:11:47;30.77;;;21.07;;
5452;SDS011;2749;53.576;9.822;2022-09-09T03:14:14;30.33;;;25.20;;
5452;SDS011;2749;53.576;9.822;2022-09-09T03:16:40;27.73;;;21.40;;
5452;SDS011;2749;53.576;9.822;2022-09-09T03:19:07;28.27;;;21.43;;
5452;SDS011;2749;53.576;9.822;2022-09-09T03:21:33;26.77;;;21.80;;
5452;SDS011;2749;53.576;9.822;2022-09-09T03:24:00;29.03;;;22.80;;
5452;SDS011;2749;53.576;9.822;2022-09-09T03:26:28;27.33;;;22.37;;
5452;SDS011;2749;53.576;9.822;2022-09-09T03:28:55;28.00;;;23.50;;
5452;SDS011;2749;53.576;9.822;2022-09-09T03:31:21;22.50;;;20.10;;
5452;SDS011;2749;53.576;9.822;2022-09-09T03:33:47;30.20;;;22.13;;
5452;SDS011;2749;53.576;9.822;2022-09-09T03:36:13;29.37;;;21.50;;
5452;SDS011;2749;53.576;9.822;2022-09-09T03:38:39;30.70;;;19.80;;
5452;SDS011;2749;53.576;9.822;2022-09-09T03:41:05;28.80;;;19.87;;
5452;SDS011;2749;53.576;9.822;2022-09-09T03:43:31;26.50;;;21.60;;
5452;SDS011;2749;53.576;9.822;2022-09-09T03:45:57;29.47;;;20.67;;
5452;SDS011;2749;53.576;9.822;2022-09-09T03:48:23;25.60;;;20.20;;
5452;SDS011;2749;53.576;9.822;2022-09-09T03:50:51;24.63;;;19.57;;
5452;SDS011;2749;53.576;9.822;2022-09-09T03:53:19;23.87;;;19.70;;
5452;SDS011;2749;53.576;9.822;2022-09-09T03:55:49;27.20;;;19.70;;
5452;SDS011;2749;53.576;9.822;2022-09-09T03:58:17;25.83;;;20.20;;
5452;SDS011;2749;53.576;9.822;2022-09-09T04:00:43;23.40;;;19.47;;
5452;SDS011;2749;53.576;9.822;2022-09-09T04:03:18;40.67;;;19.77;;
5452;SDS011;2749;53.576;9.822;2022-09-09T04:05:44;26.67;;;20.60;;
5452;SDS011;2749;53.576;9.822;2022-09-09T04:08:10;25.50;;;20.20;;
5452;SDS011;2749;53.576;9.822;2022-09-09T04:10:36;23.80;;;19.00;;
5452;SDS011;2749;53.576;9.822;2022-09-09T04:13:03;27.63;;;19.87;;
5452;SDS011;2749;53.576;9.822;2022-09-09T04:15:29;24.97;;;19.40;;
5452;SDS011;2749;53.576;9.822;2022-09-09T04:17:55;29.00;;;18.47;;
5452;SDS011;2749;53.576;9.822;2022-09-09T04:20:22;26.73;;;19.20;;
5452;SDS011;2749;53.576;9.822;2022-09-09T04:22:48;23.70;;;18.10;;
5452;SDS011;2749;53.576;9.822;2022-09-09T04:25:14;24.13;;;17.27;;
5452;SDS011;2749;53.576;9.822;2022-09-09T04:27:40;23.67;;;19.30;;
5452;SDS011;2749;53.576;9.822;2022-09-09T04:30:07;20.60;;;16.73;;
5452;SDS011;2749;53.576;9.822;2022-09-09T04:32:33;22.53;;;17.13;;
5452;SDS011;2749;53.576;9.822;2022-09-09T04:35:00;26.47;;;18.20;;
5452;SDS011;2749;53.576;9.822;2022-09-09T04:37:26;22.07;;;16.60;;
5452;SDS011;2749;53.576;9.822;2022-09-09T04:39:53;24.37;;;18.10;;
5452;SDS011;2749;53.576;9.822;2022-09-09T04:42:18;22.90;;;16.53;;
5452;SDS011;2749;53.576;9.822;2022-09-09T04:44:44;20.07;;;17.40;;
5452;SDS011;2749;53.576;9.822;2022-09-09T04:47:10;21.50;;;17.03;;
5452;SDS011;2749;53.576;9.822;2022-09-09T04:49:36;20.50;;;15.50;;
5452;SDS011;2749;53.576;9.822;2022-09-09T04:52:03;18.60;;;15.53;;
5452;SDS011;2749;53.576;9.822;2022-09-09T04:54:29;17.20;;;15.40;;
5452;SDS011;2749;53.576;9.822;2022-09-09T04:56:55;24.40;;;14.57;;
5452;SDS011;2749;53.576;9.822;2022-09-09T04:59:21;22.20;;;16.70;;
5452;SDS011;2749;53.576;9.822;2022-09-09T05:01:47;22.53;;;16.40;;
5452;SDS011;2749;53.576;9.822;2022-09-09T05:04:15;16.50;;;13.47;;
5452;SDS011;2749;53.576;9.822;2022-09-09T05:06:41;17.90;;;15.13;;
5452;SDS011;2749;53.576;9.822;2022-09-09T05:09:07;15.37;;;13.07;;
5452;SDS011;2749;53.576;9.822;2022-09-09T05:11:33;17.67;;;13.53;;
5452;SDS011;2749;53.576;9.822;2022-09-09T05:14:01;19.17;;;14.80;;
5452;SDS011;2749;53.576;9.822;2022-09-09T05:16:28;18.17;;;12.20;;
5452;SDS011;2749;53.576;9.822;2022-09-09T05:18:55;14.63;;;11.40;;
5452;SDS011;2749;53.576;9.822;2022-09-09T05:21:22;13.43;;;12.03;;
5452;SDS011;2749;53.576;9.822;2022-09-09T05:23:49;13.10;;;10.77;;
5452;SDS011;2749;53.576;9.822;2022-09-09T05:26:17;12.93;;;11.53;;
5452;SDS011;2749;53.576;9.822;2022-09-09T05:28:44;18.87;;;12.60;;
5452;SDS011;2749;53.576;9.822;2022-09-09T05:31:10;13.73;;;12.27;;
5452;SDS011;2749;53.576;9.822;2022-09-09T05:33:38;13.27;;;11.03;;
5452;SDS011;2749;53.576;9.822;2022-09-09T05:36:06;13.23;;;11.40;;
5452;SDS011;2749;53.576;9.822;2022-09-09T05:38:33;15.53;;;10.90;;
5452;SDS011;2749;53.576;9.822;2022-09-09T05:40:59;11.37;;;10.10;;
5452;SDS011;2749;53.576;9.822;2022-09-09T05:43:26;12.97;;;11.10;;
5452;SDS011;2749;53.576;9.822;2022-09-09T05:45:59;10.37;;;9.23;;
5452;SDS011;2749;53.576;9.822;2022-09-09T05:48:34;12.70;;;10.23;;
5452;SDS011;2749;53.576;9.822;2022-09-09T05:51:00;11.70;;;8.87;;
5452;SDS011;2749;53.576;9.822;2022-09-09T05:53:27;14.60;;;10.57;;
5452;SDS011;2749;53.576;9.822;2022-09-09T05:56:00;10.10;;;8.90;;
5452;SDS011;2749;53.576;9.822;2022-09-09T05:58:28;10.90;;;9.80;;
5452;SDS011;2749;53.576;9.822;2022-09-09T06:00:59;12.50;;;8.80;;
5452;SDS011;2749;53.576;9.822;2022-09-09T06:03:25;12.47;;;9.80;;
5452;SDS011;2749;53.576;9.822;2022-09-09T06:06:01;10.67;;;9.20;;
5452;SDS011;2749;53.576;9.822;2022-09-09T06:08:30;11.90;;;9.23;;
5452;SDS011;2749;53.576;9.822;2022-09-09T06:11:00;12.23;;;9.17;;
5452;SDS011;2749;53.576;9.822;2022-09-09T06:13:27;8.83;;;7.93;;
5452;SDS011;2749;53.576;9.822;2022-09-09T06:15:53;9.70;;;8.70;;
5452;SDS011;2749;53.576;9.822;2022-09-09T06:18:19;12.03;;;8.87;;
5452;SDS011;2749;53.576;9.822;2022-09-09T06:20:55;9.93;;;7.97;;
5452;SDS011;2749;53.576;9.822;2022-09-09T06:23:21;10.43;;;7.83;;
5452;SDS011;2749;53.576;9.822;2022-09-09T06:25:47;8.77;;;7.77;;
5452;SDS011;2749;53.576;9.822;2022-09-09T06:28:14;9.23;;;7.83;;
5452;SDS011;2749;53.576;9.822;2022-09-09T06:30:40;9.17;;;8.30;;
5452;SDS011;2749;53.576;9.822;2022-09-09T06:33:06;8.93;;;8.00;;
5452;SDS011;2749;53.576;9.822;2022-09-09T06:35:32;10.20;;;7.93;;
5452;SDS011;2749;53.576;9.822;2022-09-09T06:37:58;11.20;;;7.93;;
5452;SDS011;2749;53.576;9.822;2022-09-09T06:40:24;10.77;;;7.67;;
5452;SDS011;2749;53.576;9.822;2022-09-09T06:42:50;8.10;;;7.30;;
5452;SDS011;2749;53.576;9.822;2022-09-09T06:45:16;10.80;;;7.80;;
5452;SDS011;2749;53.576;9.822;2022-09-09T06:47:42;12.47;;;8.73;;
5452;SDS011;2749;53.576;9.822;2022-09-09T06:50:08;10.43;;;8.20;;
5452;SDS011;2749;53.576;9.822;2022-09-09T06:52:36;11.47;;;9.00;;
5452;SDS011;2749;53.576;9.822;2022-09-09T06:55:03;12.03;;;8.03;;
5452;SDS011;2749;53.576;9.822;2022-09-09T06:57:29;9.10;;;7.67;;
5452;SDS011;2749;53.576;9.822;2022-09-09T06:59:55;12.53;;;7.30;;
5452;SDS011;2749;53.576;9.822;2022-09-09T07:02:20;13.23;;;7.47;;
5452;SDS011;2749;53.576;9.822;2022-09-09T07:04:46;8.30;;;6.70;;
5452;SDS011;2749;53.576;9.822;2022-09-09T07:07:16;7.60;;;6.90;;
5452;SDS011;2749;53.576;9.822;2022-09-09T07:09:42;8.13;;;6.80;;
5452;SDS011;2749;53.576;9.822;2022-09-09T07:12:10;8.47;;;7.03;;
5452;SDS011;2749;53.576;9.822;2022-09-09T07:14:37;7.27;;;6.50;;
5452;SDS011;2749;53.576;9.822;2022-09-09T07:17:04;8.00;;;6.47;;
5452;SDS011;2749;53.576;9.822;2022-09-09T07:19:30;8.77;;;6.47;;
5452;SDS011;2749;53.576;9.822;2022-09-09T07:21:56;8.20;;;6.40;;
5452;SDS011;2749;53.576;9.822;2022-09-09T07:24:22;9.87;;;6.50;;
5452;SDS011;2749;53.576;9.822;2022-09-09T07:26:48;8.70;;;6.93;;
5452;SDS011;2749;53.576;9.822;2022-09-09T07:29:14;6.97;;;6.37;;
5452;SDS011;2749;53.576;9.822;2022-09-09T07:31:40;5.77;;;5.17;;
5452;SDS011;2749;53.576;9.822;2022-09-09T07:34:06;5.83;;;5.23;;
5452;SDS011;2749;53.576;9.822;2022-09-09T07:36:33;5.90;;;5.40;;
5452;SDS011;2749;53.576;9.822;2022-09-09T07:39:00;5.93;;;5.33;;
5452;SDS011;2749;53.576;9.822;2022-09-09T07:41:28;8.57;;;5.63;;
5452;SDS011;2749;53.576;9.822;2022-09-09T07:43:55;6.83;;;5.00;;
5452;SDS011;2749;53.576;9.822;2022-09-09T07:46:22;5.53;;;4.77;;
5452;SDS011;2749;53.576;9.822;2022-09-09T07:48:50;6.57;;;5.50;;
5452;SDS011;2749;53.576;9.822;2022-09-09T07:51:17;5.43;;;4.93;;
5452;SDS011;2749;53.576;9.822;2022-09-09T07:53:44;4.77;;;4.37;;
5452;SDS011;2749;53.576;9.822;2022-09-09T07:56:12;5.03;;;4.53;;
5452;SDS011;2749;53.576;9.822;2022-09-09T07:58:38;8.40;;;5.73;;
5452;SDS011;2749;53.576;9.822;2022-09-09T08:01:12;5.07;;;4.67;;
5452;SDS011;2749;53.576;9.822;2022-09-09T08:03:39;5.00;;;4.60;;
5452;SDS011;2749;53.576;9.822;2022-09-09T08:06:05;6.97;;;5.73;;
5452;SDS011;2749;53.576;9.822;2022-09-09T08:08:32;7.97;;;5.63;;
5452;SDS011;2749;53.576;9.822;2022-09-09T08:11:05;7.77;;;5.03;;
5452;SDS011;2749;53.576;9.822;2022-09-09T08:13:32;4.80;;;4.40;;
5452;SDS011;2749;53.576;9.822;2022-09-09T08:16:05;5.80;;;4.30;;
5452;SDS011;2749;53.576;9.822;2022-09-09T08:18:31;4.80;;;3.97;;
5452;SDS011;2749;53.576;9.822;2022-09-09T08:20:57;12.40;;;5.17;;
5452;SDS011;2749;53.576;9.822;2022-09-09T08:23:23;4.70;;;4.30;;
5452;SDS011;2749;53.576;9.822;2022-09-09T08:25:50;4.83;;;4.43;;
5452;SDS011;2749;53.576;9.822;2022-09-09T08:28:16;8.30;;;5.10;;
5452;SDS011;2749;53.576;9.822;2022-09-09T08:30:42;8.63;;;4.37;;
5452;SDS011;2749;53.576;9.822;2022-09-09T08:33:08;6.00;;;4.07;;
5452;SDS011;2749;53.576;9.822;2022-09-09T08:35:35;4.47;;;3.80;;
5452;SDS011;2749;53.576;9.822;2022-09-09T08:38:01;8.63;;;4.50;;
5452;SDS011;2749;53.576;9.822;2022-09-09T08:40:28;7.23;;;4.97;;
5452;SDS011;2749;53.576;9.822;2022-09-09T08:42:55;5.90;;;5.30;;
5452;SDS011;2749;53.576;9.822;2022-09-09T08:45:28;10.43;;;4.27;;
5452;SDS011;2749;53.576;9.822;2022-09-09T08:48:12;5.10;;;4.10;;
5452;SDS011;2749;53.576;9.822;2022-09-09T08:50:41;4.53;;;4.03;;
5452;SDS011;2749;53.576;9.822;2022-09-09T08:58:01;4.57;;;4.17;;
5452;SDS011;2749;53.576;9.822;2022-09-09T09:00:34;4.57;;;3.93;;
5452;SDS011;2749;53.576;9.822;2022-09-09T09:05:33;5.60;;;3.47;;
5452;SDS011;2749;53.576;9.822;2022-09-09T09:10:45;4.23;;;2.87;;
5452;SDS011;2749;53.576;9.822;2022-09-09T09:13:13;10.43;;;3.83;;
5452;SDS011;2749;53.576;9.822;2022-09-09T09:15:40;5.93;;;3.20;;
5452;SDS011;2749;53.576;9.822;2022-09-09T09:18:07;3.20;;;2.90;;
5452;SDS011;2749;53.576;9.822;2022-09-09T09:23:11;3.13;;;2.60;;
5452;SDS011;2749;53.576;9.822;2022-09-09T09:25:40;3.60;;;3.30;;
5452;SDS011;2749;53.576;9.822;2022-09-09T09:28:17;2.63;;;2.37;;
5452;SDS011;2749;53.576;9.822;2022-09-09T09:30:47;3.80;;;2.43;;
5452;SDS011;2749;53.576;9.822;2022-09-09T09:33:16;9.43;;;2.43;;
5452;SDS011;2749;53.576;9.822;2022-09-09T09:35:43;2.57;;;2.37;;
5452;SDS011;2749;53.576;9.822;2022-09-09T09:41:15;3.60;;;2.37;;
5452;SDS011;2749;53.576;9.822;2022-09-09T09:43:35;2.37;;;1.73;;
5452;SDS011;2749;53.576;9.822;2022-09-09T09:46:03;3.93;;;2.33;;
5452;SDS011;2749;53.576;9.822;2022-09-09T09:48:29;2.00;;;1.83;;
5452;SDS011;2749;53.576;9.822;2022-09-09T09:55:53;1.83;;;1.23;;
5452;SDS011;2749;53.576;9.822;2022-09-09T09:58:19;2.87;;;2.60;;
5452;SDS011;2749;53.576;9.822;2022-09-09T10:00:49;2.23;;;1.10;;
5452;SDS011;2749;53.576;9.822;2022-09-09T10:03:23;3.13;;;1.50;;
5452;SDS011;2749;53.576;9.822;2022-09-09T10:05:49;1.27;;;1.17;;
5452;SDS011;2749;53.576;9.822;2022-09-09T10:08:16;2.80;;;1.30;;
5452;SDS011;2749;53.576;9.822;2022-09-09T10:13:31;4.20;;;1.33;;
5452;SDS011;2749;53.576;9.822;2022-09-09T10:21:15;1.10;;;1.00;;
5452;SDS011;2749;53.576;9.822;2022-09-09T10:26:50;1.97;;;1.10;;
5452;SDS011;2749;53.576;9.822;2022-09-09T10:37:16;3.50;;;1.30;;
5452;SDS011;2749;53.576;9.822;2022-09-09T10:39:47;1.57;;;1.07;;
5452;SDS011;2749;53.576;9.822;2022-09-09T10:42:16;3.60;;;1.47;;
5452;SDS011;2749;53.576;9.822;2022-09-09T10:55:18;3.37;;;1.30;;
5452;SDS011;2749;53.576;9.822;2022-09-09T11:00:23;3.67;;;1.67;;
5452;SDS011;2749;53.576;9.822;2022-09-09T11:02:53;2.60;;;1.33;;
5452;SDS011;2749;53.576;9.822;2022-09-09T11:05:22;3.70;;;1.80;;
5452;SDS011;2749;53.576;9.822;2022-09-09T11:07:55;3.20;;;1.57;;
5452;SDS011;2749;53.576;9.822;2022-09-09T11:13:13;1.97;;;1.10;;
5452;SDS011;2749;53.576;9.822;2022-09-09T11:15:43;2.10;;;1.20;;
5452;SDS011;2749;53.576;9.822;2022-09-09T11:18:13;1.13;;;1.00;;
5452;SDS011;2749;53.576;9.822;2022-09-09T11:20:41;2.10;;;1.43;;
5452;SDS011;2749;53.576;9.822;2022-09-09T11:23:16;1.60;;;1.50;;
5452;SDS011;2749;53.576;9.822;2022-09-09T11:25:44;2.03;;;1.73;;
5452;SDS011;2749;53.576;9.822;2022-09-09T11:38:41;3.37;;;1.93;;
5452;SDS011;2749;53.576;9.822;2022-09-09T11:41:10;3.47;;;1.50;;
5452;SDS011;2749;53.576;9.822;2022-09-09T11:46:04;2.33;;;1.70;;
5452;SDS011;2749;53.576;9.822;2022-09-09T11:51:03;2.33;;;1.47;;
5452;SDS011;2749;53.576;9.822;2022-09-09T11:53:30;2.10;;;1.30;;
5452;SDS011;2749;53.576;9.822;2022-09-09T11:56:03;2.80;;;1.67;;
5452;SDS011;2749;53.576;9.822;2022-09-09T11:58:32;3.40;;;1.70;;
5452;SDS011;2749;53.576;9.822;2022-09-09T12:00:58;1.90;;;1.70;;
5452;SDS011;2749;53.576;9.822;2022-09-09T12:03:41;3.27;;;1.70;;
5452;SDS011;2749;53.576;9.822;2022-09-09T12:06:28;3.63;;;1.83;;
5452;SDS011;2749;53.576;9.822;2022-09-09T12:09:08;5.53;;;1.90;;
5452;SDS011;2749;53.576;9.822;2022-09-09T12:11:36;2.40;;;1.57;;
5452;SDS011;2749;53.576;9.822;2022-09-09T12:14:02;2.03;;;1.40;;
5452;SDS011;2749;53.576;9.822;2022-09-09T12:16:32;2.30;;;1.57;;
5452;SDS011;2749;53.576;9.822;2022-09-09T12:19:03;3.53;;;1.37;;
5452;SDS011;2749;53.576;9.822;2022-09-09T12:24:09;2.13;;;1.70;;
5452;SDS011;2749;53.576;9.822;2022-09-09T12:26:47;5.70;;;1.60;;
5452;SDS011;2749;53.576;9.822;2022-09-09T12:37:17;1.87;;;1.70;;
5452;SDS011;2749;53.576;9.822;2022-09-09T12:39:49;3.03;;;1.87;;
5452;SDS011;2749;53.576;9.822;2022-09-09T12:42:20;2.23;;;1.40;;
5452;SDS011;2749;53.576;9.822;2022-09-09T12:44:59;3.70;;;1.83;;
5452;SDS011;2749;53.576;9.822;2022-09-09T12:49:51;2.23;;;1.33;;
5452;SDS011;2749;53.576;9.822;2022-09-09T12:52:22;5.53;;;1.80;;
5452;SDS011;2749;53.576;9.822;2022-09-09T12:54:49;1.77;;;1.50;;
5452;SDS011;2749;53.576;9.822;2022-09-09T12:57:16;3.20;;;1.60;;
5452;SDS011;2749;53.576;9.822;2022-09-09T12:59:43;2.80;;;2.23;;
5452;SDS011;2749;53.576;9.822;2022-09-09T13:02:44;3.13;;;1.83;;
5452;SDS011;2749;53.576;9.822;2022-09-09T13:05:06;2.90;;;2.20;;
5452;SDS011;2749;53.576;9.822;2022-09-09T13:07:32;5.10;;;2.00;;
5452;SDS011;2749;53.576;9.822;2022-09-09T13:09:58;2.57;;;1.77;;
5452;SDS011;2749;53.576;9.822;2022-09-09T13:12:24;6.13;;;1.90;;
5452;SDS011;2749;53.576;9.822;2022-09-09T13:14:53;2.30;;;1.40;;
5452;SDS011;2749;53.576;9.822;2022-09-09T13:17:22;3.10;;;1.40;;
5452;SDS011;2749;53.576;9.822;2022-09-09T13:19:48;3.27;;;1.20;;
5452;SDS011;2749;53.576;9.822;2022-09-09T13:22:21;2.77;;;1.80;;
5452;SDS011;2749;53.576;9.822;2022-09-09T13:24:57;3.63;;;1.67;;
5452;SDS011;2749;53.576;9.822;2022-09-09T13:27:26;3.40;;;2.60;;
5452;SDS011;2749;53.576;9.822;2022-09-09T13:29:53;3.07;;;1.60;;
5452;SDS011;2749;53.576;9.822;2022-09-09T13:32:20;1.93;;;1.10;;
5452;SDS011;2749;53.576;9.822;2022-09-09T13:34:50;2.80;;;0.90;;
5452;SDS011;2749;53.576;9.822;2022-09-09T13:37:22;1.67;;;1.10;;
5452;SDS011;2749;53.576;9.822;2022-09-09T13:39:51;2.17;;;1.03;;
5452;SDS011;2749;53.576;9.822;2022-09-09T13:42:28;1.30;;;1.20;;
5452;SDS011;2749;53.576;9.822;2022-09-09T13:44:55;1.90;;;1.00;;
5452;SDS011;2749;53.576;9.822;2022-09-09T13:47:26;2.30;;;1.10;;
5452;SDS011;2749;53.576;9.822;2022-09-09T13:49:53;4.53;;;1.77;;
5452;SDS011;2749;53.576;9.822;2022-09-09T13:52:19;1.40;;;1.30;;
5452;SDS011;2749;53.576;9.822;2022-09-09T13:54:50;3.10;;;1.43;;
5452;SDS011;2749;53.576;9.822;2022-09-09T13:57:17;3.40;;;1.53;;
5452;SDS011;2749;53.576;9.822;2022-09-09T13:59:46;1.30;;;1.20;;
5452;SDS011;2749;53.576;9.822;2022-09-09T14:02:13;2.60;;;1.80;;
5452;SDS011;2749;53.576;9.822;2022-09-09T14:04:39;2.43;;;1.73;;
5452;SDS011;2749;53.576;9.822;2022-09-09T14:07:08;3.20;;;2.27;;
5452;SDS011;2749;53.576;9.822;2022-09-09T14:09:34;4.37;;;2.60;;
5452;SDS011;2749;53.576;9.822;2022-09-09T14:12:01;2.73;;;2.20;;
5452;SDS011;2749;53.576;9.822;2022-09-09T14:14:27;4.30;;;2.13;;
5452;SDS011;2749;53.576;9.822;2022-09-09T14:16:53;2.07;;;1.87;;
5452;SDS011;2749;53.576;9.822;2022-09-09T14:19:19;6.23;;;2.70;;
5452;SDS011;2749;53.576;9.822;2022-09-09T14:21:44;3.23;;;2.57;;
5452;SDS011;2749;53.576;9.822;2022-09-09T14:24:10;4.43;;;2.63;;
5452;SDS011;2749;53.576;9.822;2022-09-09T14:26:37;4.07;;;2.20;;
5452;SDS011;2749;53.576;9.822;2022-09-09T14:29:03;3.50;;;2.53;;
5452;SDS011;2749;53.576;9.822;2022-09-09T14:31:29;3.00;;;2.80;;
5452;SDS011;2749;53.576;9.822;2022-09-09T14:33:55;3.57;;;3.27;;
5452;SDS011;2749;53.576;9.822;2022-09-09T14:36:21;4.40;;;3.40;;
5452;SDS011;2749;53.576;9.822;2022-09-09T14:38:47;5.40;;;2.77;;
5452;SDS011;2749;53.576;9.822;2022-09-09T14:41:14;4.17;;;2.87;;
5452;SDS011;2749;53.576;9.822;2022-09-09T14:43:44;3.73;;;2.70;;
5452;SDS011;2749;53.576;9.822;2022-09-09T14:46:15;3.13;;;2.83;;
5452;SDS011;2749;53.576;9.822;2022-09-09T14:48:41;3.53;;;2.67;;
5452;SDS011;2749;53.576;9.822;2022-09-09T14:53:37;4.00;;;3.67;;
5452;SDS011;2749;53.576;9.822;2022-09-09T14:56:04;5.00;;;2.70;;
5452;SDS011;2749;53.576;9.822;2022-09-09T14:58:30;3.63;;;2.27;;
5452;SDS011;2749;53.576;9.822;2022-09-09T15:01:01;3.83;;;2.20;;
5452;SDS011;2749;53.576;9.822;2022-09-09T15:03:27;4.33;;;3.30;;
5452;SDS011;2749;53.576;9.822;2022-09-09T15:05:53;4.07;;;3.10;;
5452;SDS011;2749;53.576;9.822;2022-09-09T15:08:19;4.70;;;4.23;;
5452;SDS011;2749;53.576;9.822;2022-09-09T15:10:45;3.60;;;2.67;;
5452;SDS011;2749;53.576;9.822;2022-09-09T15:13:12;3.20;;;2.70;;
5452;SDS011;2749;53.576;9.822;2022-09-09T15:15:41;3.77;;;2.03;;
5452;SDS011;2749;53.576;9.822;2022-09-09T15:18:08;4.13;;;2.60;;
5452;SDS011;2749;53.576;9.822;2022-09-09T15:20:34;4.33;;;2.20;;
5452;SDS011;2749;53.576;9.822;2022-09-09T15:23:02;3.47;;;3.03;;
5452;SDS011;2749;53.576;9.822;2022-09-09T15:25:28;4.20;;;2.23;;
5452;SDS011;2749;53.576;9.822;2022-09-09T15:27:54;2.10;;;2.00;;
5452;SDS011;2749;53.576;9.822;2022-09-09T15:30:21;6.83;;;2.73;;
5452;SDS011;2749;53.576;9.822;2022-09-09T15:32:47;3.90;;;2.77;;
5452;SDS011;2749;53.576;9.822;2022-09-09T15:35:13;4.10;;;2.83;;
5452;SDS011;2749;53.576;9.822;2022-09-09T15:37:38;3.80;;;2.40;;
5452;SDS011;2749;53.576;9.822;2022-09-09T15:40:04;3.60;;;2.20;;
5452;SDS011;2749;53.576;9.822;2022-09-09T15:42:31;2.80;;;2.60;;
5452;SDS011;2749;53.576;9.822;2022-09-09T15:44:57;3.33;;;2.17;;
5452;SDS011;2749;53.576;9.822;2022-09-09T15:47:23;2.50;;;2.30;;
5452;SDS011;2749;53.576;9.822;2022-09-09T15:49:49;3.33;;;2.63;;
5452;SDS011;2749;53.576;9.822;2022-09-09T15:52:15;2.83;;;2.20;;
5452;SDS011;2749;53.576;9.822;2022-09-09T15:54:41;2.83;;;2.60;;
5452;SDS011;2749;53.576;9.822;2022-09-09T15:57:10;4.20;;;2.87;;
5452;SDS011;2749;53.576;9.822;2022-09-09T15:59:37;4.00;;;2.53;;
5452;SDS011;2749;53.576;9.822;2022-09-09T16:02:03;3.60;;;2.77;;
5452;SDS011;2749;53.576;9.822;2022-09-09T16:04:30;2.70;;;2.03;;
5452;SDS011;2749;53.576;9.822;2022-09-09T16:06:57;4.60;;;2.00;;
5452;SDS011;2749;53.576;9.822;2022-09-09T16:09:24;3.90;;;2.40;;
5452;SDS011;2749;53.576;9.822;2022-09-09T16:11:50;2.53;;;2.00;;
5452;SDS011;2749;53.576;9.822;2022-09-09T16:14:18;3.60;;;1.80;;
5452;SDS011;2749;53.576;9.822;2022-09-09T16:16:44;2.10;;;1.50;;
5452;SDS011;2749;53.576;9.822;2022-09-09T16:19:10;2.60;;;1.33;;
5452;SDS011;2749;53.576;9.822;2022-09-09T16:21:41;2.57;;;2.37;;
5452;SDS011;2749;53.576;9.822;2022-09-09T16:24:08;2.53;;;1.67;;
5452;SDS011;2749;53.576;9.822;2022-09-09T16:26:35;3.30;;;1.70;;
5452;SDS011;2749;53.576;9.822;2022-09-09T16:29:01;1.60;;;1.50;;
5452;SDS011;2749;53.576;9.822;2022-09-09T16:31:28;2.80;;;1.40;;
5452;SDS011;2749;53.576;9.822;2022-09-09T16:33:54;1.77;;;1.50;;
5452;SDS011;2749;53.576;9.822;2022-09-09T16:36:21;2.60;;;1.43;;
5452;SDS011;2749;53.576;9.822;2022-09-09T16:38:51;4.67;;;1.33;;
5452;SDS011;2749;53.576;9.822;2022-09-09T16:41:18;3.67;;;1.50;;
5452;SDS011;2749;53.576;9.822;2022-09-09T16:43:45;1.97;;;1.20;;
5452;SDS011;2749;53.576;9.822;2022-09-09T16:46:12;2.10;;;1.50;;
5452;SDS011;2749;53.576;9.822;2022-09-09T16:48:40;2.20;;;1.30;;
5452;SDS011;2749;53.576;9.822;2022-09-09T16:51:09;1.53;;;1.10;;
5452;SDS011;2749;53.576;9.822;2022-09-09T16:53:37;1.40;;;1.20;;
5452;SDS011;2749;53.576;9.822;2022-09-09T16:56:06;1.30;;;1.20;;
5452;SDS011;2749;53.576;9.822;2022-09-09T16:58:32;3.23;;;1.37;;
5452;SDS011;2749;53.576;9.822;2022-09-09T17:00:58;2.77;;;1.40;;
5452;SDS011;2749;53.576;9.822;2022-09-09T17:03:24;1.20;;;1.10;;
5452;SDS011;2749;53.576;9.822;2022-09-09T17:05:51;1.60;;;1.50;;
5452;SDS011;2749;53.576;9.822;2022-09-09T17:08:17;2.10;;;1.10;;
5452;SDS011;2749;53.576;9.822;2022-09-09T17:10:42;1.83;;;1.10;;